Time;durP1;ratioP1;P1;durP2;ratioP2;P2;SDS_P1;SDS_P2;PMS_P1;PMS_P2;Temp;Humidity;BMP_temperature;BMP_pressure;BME280_temperature;BME280_humidity;BME280_pressure;Samples;Min_cycle;Max_cycle;Signal;HPM_P1;HPM_P2
2022/07/27 00:00:18;;;;;;;4.20;1.00;;;13.10;99.90;;;;;;5031748;28;20112;-57
2022/07/27 00:02:43;;;;;;;5.20;1.17;;;13.10;99.90;;;;;;5031200;28;20498;-58
2022/07/27 00:05:09;;;;;;;5.88;1.40;;;13.10;99.90;;;;;;5031911;28;20041;-57
2022/07/27 00:07:34;;;;;;;6.22;1.38;;;13.10;99.90;;;;;;5031437;28;20446;-57
2022/07/27 00:10:00;;;;;;;2.83;1.10;;;13.10;99.90;;;;;;5029212;28;20037;-53
2022/07/27 00:12:26;;;;;;;3.72;1.25;;;13.20;99.90;;;;;;5031012;28;20025;-56
2022/07/27 00:14:51;;;;;;;2.03;1.02;;;13.20;99.90;;;;;;5031642;28;20105;-57
2022/07/27 00:17:22;;;;;;;2.95;0.93;;;13.20;99.90;;;;;;5031180;28;20028;-57
2022/07/27 00:19:49;;;;;;;4.00;1.10;;;13.20;99.90;;;;;;5031292;28;20025;-57
2022/07/27 00:22:14;;;;;;;2.58;1.35;;;13.20;99.90;;;;;;5009440;28;20484;-57
2022/07/27 00:24:41;;;;;;;4.15;1.15;;;13.20;99.90;;;;;;4996727;28;20033;-58
2022/07/27 00:27:07;;;;;;;6.95;1.77;;;13.20;99.90;;;;;;5013252;28;20037;-55
2022/07/27 00:29:32;;;;;;;4.88;1.30;;;13.20;99.90;;;;;;5031058;28;20384;-59
2022/07/27 00:31:58;;;;;;;5.63;1.52;;;13.20;99.90;;;;;;5030412;28;20022;-57
2022/07/27 00:34:24;;;;;;;2.03;0.85;;;13.20;99.90;;;;;;5030356;28;20391;-58
2022/07/27 00:36:49;;;;;;;3.60;1.02;;;13.30;99.90;;;;;;5030250;28;20095;-58
2022/07/27 00:39:15;;;;;;;4.00;1.10;;;13.30;99.90;;;;;;5030842;28;20027;-56
2022/07/27 00:41:40;;;;;;;4.45;1.13;;;13.30;99.90;;;;;;5030357;28;20055;-58
2022/07/27 00:44:06;;;;;;;2.38;1.02;;;13.30;99.90;;;;;;5030396;28;20076;-57
2022/07/27 00:46:32;;;;;;;3.00;0.95;;;13.30;99.90;;;;;;5030549;28;20056;-57
2022/07/27 00:48:58;;;;;;;4.82;1.33;;;13.30;99.90;;;;;;5012335;28;20496;-59
2022/07/27 00:51:25;;;;;;;2.95;0.85;;;13.30;99.90;;;;;;5029489;28;20037;-59
2022/07/27 00:53:52;;;;;;;2.53;1.15;;;13.30;99.90;;;;;;5030417;28;20027;-55
2022/07/27 00:56:18;;;;;;;4.97;0.80;;;13.30;99.90;;;;;;5012564;28;20031;-58
2022/07/27 00:58:47;;;;;;;2.25;0.82;;;13.30;99.90;;;;;;5023971;28;20071;-57
2022/07/27 01:01:13;;;;;;;2.35;0.65;;;13.30;99.90;;;;;;5027029;28;20555;-59
2022/07/27 01:03:39;;;;;;;1.60;0.77;;;13.30;99.90;;;;;;5028185;28;20039;-57
2022/07/27 01:06:05;;;;;;;5.07;1.20;;;13.30;99.90;;;;;;5030105;28;20463;-58
2022/07/27 01:08:31;;;;;;;2.55;1.15;;;13.30;99.90;;;;;;5030092;28;20026;-58
2022/07/27 01:10:57;;;;;;;1.25;0.70;;;13.30;99.90;;;;;;5029231;28;20029;-57
2022/07/27 01:13:25;;;;;;;3.08;0.90;;;13.20;99.90;;;;;;5029694;28;20064;-58
2022/07/27 01:15:51;;;;;;;3.97;1.00;;;13.20;99.90;;;;;;5029938;28;20372;-59
2022/07/27 01:18:30;;;;;;;4.03;0.70;;;13.30;99.90;;;;;;5011853;28;20722;-58
2022/07/27 01:20:56;;;;;;;2.97;0.98;;;13.20;99.90;;;;;;5027585;28;20033;-55
2022/07/27 01:23:23;;;;;;;5.82;0.90;;;13.30;99.90;;;;;;5029057;28;20030;-59
2022/07/27 01:25:49;;;;;;;4.28;0.70;;;13.30;99.90;;;;;;4994745;28;20171;-58
2022/07/27 01:28:16;;;;;;;2.80;0.77;;;13.20;99.90;;;;;;5029141;28;20153;-57
2022/07/27 01:30:41;;;;;;;7.07;1.75;;;13.20;99.90;;;;;;5029586;28;20490;-57
2022/07/27 01:33:08;;;;;;;2.95;0.85;;;13.10;99.90;;;;;;5010936;28;20029;-55
2022/07/27 01:35:36;;;;;;;2.90;0.80;;;13.10;99.90;;;;;;4994110;28;20030;-58
2022/07/27 01:38:02;;;;;;;3.35;1.05;;;13.10;99.90;;;;;;5056758;22;20048;-54
2022/07/27 01:40:28;;;;;;;3.33;1.10;;;13.10;99.90;;;;;;5033570;28;20026;-55
2022/07/27 01:42:54;;;;;;;6.38;1.33;;;13.10;99.90;;;;;;5035089;28;20033;-55
2022/07/27 01:45:20;;;;;;;5.15;1.52;;;13.10;99.90;;;;;;5031265;28;20025;-50
2022/07/27 01:47:46;;;;;;;5.35;1.40;;;13.10;99.90;;;;;;5031699;28;20029;-53
2022/07/27 01:50:12;;;;;;;3.35;1.10;;;13.10;99.90;;;;;;5029993;28;20055;-52
2022/07/27 01:52:38;;;;;;;5.00;1.00;;;13.00;99.90;;;;;;5031893;28;20045;-51
2022/07/27 01:55:09;;;;;;;4.28;1.10;;;13.00;99.90;;;;;;5035330;28;20041;-52
2022/07/27 01:57:35;;;;;;;2.60;1.15;;;13.00;99.90;;;;;;5034354;28;20638;-52
2022/07/27 02:00:02;;;;;;;1.90;0.93;;;13.00;99.90;;;;;;5035609;28;20033;-55
2022/07/27 02:02:27;;;;;;;3.35;1.00;;;13.00;99.90;;;;;;5031092;28;20514;-56
2022/07/27 02:04:53;;;;;;;2.65;0.95;;;13.00;99.90;;;;;;5038509;28;20021;-55
2022/07/27 02:07:18;;;;;;;2.25;1.10;;;12.90;99.90;;;;;;5029714;28;20037;-53
2022/07/27 02:09:44;;;;;;;7.00;1.40;;;12.90;99.90;;;;;;5034254;28;20033;-53
2022/07/27 02:14:54;;;;;;;2.63;0.93;;;12.90;99.90;;;;;;5035786;28;20036;-51
2022/07/27 02:17:20;;;;;;;4.20;1.02;;;12.90;99.90;;;;;;5035342;28;20025;-54
2022/07/27 02:19:46;;;;;;;4.65;0.93;;;12.90;99.90;;;;;;5016979;28;20511;-51
2022/07/27 02:22:11;;;;;;;2.85;1.02;;;12.90;99.90;;;;;;5038903;28;20033;-53
2022/07/27 02:24:38;;;;;;;5.22;1.73;;;13.00;99.90;;;;;;5033416;28;20110;-55
2022/07/27 02:27:03;;;;;;;2.45;1.20;;;13.00;99.90;;;;;;5035779;28;20127;-55
2022/07/27 02:29:29;;;;;;;2.97;1.15;;;13.00;99.90;;;;;;5028343;28;20021;-50
2022/07/27 02:31:55;;;;;;;5.32;1.25;;;13.00;99.90;;;;;;5035799;28;20032;-51
2022/07/27 02:34:21;;;;;;;2.45;1.48;;;13.00;99.90;;;;;;5028721;28;20017;-53
2022/07/27 02:36:47;;;;;;;7.63;1.40;;;13.00;99.90;;;;;;5031758;28;20500;-54
2022/07/27 02:39:12;;;;;;;5.93;1.27;;;13.00;99.90;;;;;;5036279;28;20109;-53
2022/07/27 02:41:38;;;;;;;5.13;1.00;;;13.00;99.90;;;;;;5028657;28;20036;-54
2022/07/27 02:44:04;;;;;;;4.47;1.27;;;13.00;99.90;;;;;;5036503;28;20029;-52
2022/07/27 02:46:29;;;;;;;2.47;1.00;;;13.00;99.90;;;;;;5029992;28;20025;-49
2022/07/27 02:48:55;;;;;;;3.67;1.10;;;13.00;99.90;;;;;;5033261;28;20100;-54
2022/07/27 02:51:21;;;;;;;5.28;0.95;;;13.00;99.90;;;;;;5030514;28;20076;-53
2022/07/27 02:53:46;;;;;;;4.13;1.33;;;13.00;99.90;;;;;;5015392;28;20116;-54
2022/07/27 02:56:12;;;;;;;2.63;1.00;;;13.00;99.90;;;;;;5031669;28;20025;-55
2022/07/27 02:58:37;;;;;;;4.18;1.00;;;13.00;99.90;;;;;;5032996;28;20025;-53
2022/07/27 03:01:04;;;;;;;2.15;0.85;;;13.00;99.90;;;;;;5018983;28;20037;-53
2022/07/27 03:03:30;;;;;;;4.32;1.00;;;13.00;99.90;;;;;;5027947;28;20047;-49
2022/07/27 03:05:55;;;;;;;5.53;1.60;;;13.00;99.90;;;;;;5029788;28;20096;-50
2022/07/27 03:08:21;;;;;;;4.10;1.10;;;13.10;99.90;;;;;;5031218;28;20499;-53
2022/07/27 03:10:47;;;;;;;5.85;1.30;;;13.10;99.90;;;;;;5029529;28;20064;-54
2022/07/27 03:13:13;;;;;;;2.55;0.88;;;13.00;99.90;;;;;;5033560;28;20484;-55
2022/07/27 03:15:39;;;;;;;4.22;1.70;;;13.10;99.90;;;;;;5027715;28;20029;-51
2022/07/27 03:18:05;;;;;;;3.35;1.20;;;13.10;99.90;;;;;;5031579;28;20056;-57
2022/07/27 03:20:31;;;;;;;2.80;1.15;;;13.10;99.90;;;;;;5033398;28;20487;-54
2022/07/27 03:22:56;;;;;;;2.42;1.30;;;13.00;99.90;;;;;;5030318;28;20086;-54
2022/07/27 03:25:22;;;;;;;3.05;0.98;;;13.10;99.90;;;;;;5032165;28;20025;-56
2022/07/27 03:27:48;;;;;;;5.40;1.58;;;13.00;99.90;;;;;;5029662;28;20033;-51
2022/07/27 03:30:13;;;;;;;4.68;1.20;;;13.00;99.90;;;;;;5032609;28;20547;-51
2022/07/27 03:32:39;;;;;;;3.10;0.90;;;13.00;99.90;;;;;;5028930;28;20014;-52
2022/07/27 03:35:05;;;;;;;4.85;1.13;;;12.90;99.90;;;;;;5028493;28;20561;-53
2022/07/27 03:37:31;;;;;;;7.82;1.85;;;12.90;99.90;;;;;;5039083;28;20031;-56
2022/07/27 03:39:56;;;;;;;1.75;0.95;;;12.90;99.90;;;;;;5030984;28;20100;-50
2022/07/27 03:42:22;;;;;;;4.68;1.15;;;12.90;99.90;;;;;;5033731;28;20460;-53
2022/07/27 03:44:48;;;;;;;4.28;1.00;;;12.90;99.90;;;;;;5031190;28;20025;-50
2022/07/27 03:47:13;;;;;;;3.42;1.15;;;12.80;99.90;;;;;;5031777;28;20017;-56
2022/07/27 03:49:39;;;;;;;2.00;0.93;;;12.80;99.90;;;;;;5031866;28;20460;-54
2022/07/27 03:52:04;;;;;;;7.10;0.98;;;12.80;99.90;;;;;;5030073;28;20048;-52
2022/07/27 03:54:30;;;;;;;2.63;1.33;;;12.80;99.90;;;;;;5039041;28;20049;-54
2022/07/27 03:56:56;;;;;;;3.03;0.90;;;12.80;99.90;;;;;;5033359;28;20521;-50
2022/07/27 03:59:21;;;;;;;3.97;1.33;;;12.80;99.90;;;;;;5032846;28;20103;-55
2022/07/27 04:01:47;;;;;;;4.30;1.10;;;12.80;99.90;;;;;;5031103;28;20026;-55
2022/07/27 04:04:12;;;;;;;3.15;1.08;;;12.90;99.90;;;;;;5033034;28;20124;-55
2022/07/27 04:06:38;;;;;;;5.13;1.30;;;12.80;99.90;;;;;;5037028;28;20044;-53
2022/07/27 04:09:04;;;;;;;5.03;1.25;;;12.80;99.90;;;;;;5034772;28;20033;-51
2022/07/27 04:11:30;;;;;;;2.95;0.88;;;12.80;99.90;;;;;;5041714;28;20394;-53
2022/07/27 04:13:56;;;;;;;6.28;1.15;;;12.90;99.90;;;;;;5018273;28;20051;-55
2022/07/27 04:16:21;;;;;;;5.05;1.00;;;12.90;99.90;;;;;;5038266;28;20097;-53
2022/07/27 04:18:47;;;;;;;5.20;0.88;;;12.90;99.90;;;;;;5039956;28;20021;-54
2022/07/27 04:21:14;;;;;;;3.65;1.25;;;12.90;99.90;;;;;;5039740;28;20031;-54
2022/07/27 04:23:40;;;;;;;4.00;1.08;;;12.90;99.90;;;;;;5035301;28;20072;-53
2022/07/27 04:26:06;;;;;;;4.22;0.77;;;13.00;99.90;;;;;;5021154;28;20032;-55
2022/07/27 04:28:31;;;;;;;2.38;1.05;;;13.00;99.90;;;;;;5033471;28;20026;-51
2022/07/27 04:30:57;;;;;;;3.75;1.17;;;13.00;99.90;;;;;;5030295;28;20025;-52
2022/07/27 04:33:23;;;;;;;2.72;1.10;;;13.00;99.90;;;;;;5031780;28;20033;-50
2022/07/27 04:35:48;;;;;;;2.63;1.10;;;13.00;99.90;;;;;;5034857;28;20377;-54
2022/07/27 04:38:14;;;;;;;2.00;1.15;;;13.10;99.90;;;;;;5035917;28;20407;-55
2022/07/27 04:40:39;;;;;;;2.25;1.25;;;13.10;99.90;;;;;;5036570;28;20514;-52
2022/07/27 04:43:05;;;;;;;5.28;1.42;;;13.10;99.90;;;;;;5032991;28;20030;-51
2022/07/27 04:45:31;;;;;;;4.60;1.25;;;13.10;99.90;;;;;;5032920;28;20022;-53
2022/07/27 04:47:57;;;;;;;4.38;1.08;;;13.10;99.90;;;;;;5037255;28;20561;-52
2022/07/27 04:50:23;;;;;;;3.58;1.15;;;13.10;99.90;;;;;;5031657;28;20025;-53
2022/07/27 04:52:49;;;;;;;4.78;1.33;;;13.10;99.90;;;;;;5021553;28;20079;-52
2022/07/27 04:55:14;;;;;;;4.55;1.40;;;13.10;99.90;;;;;;5030948;28;20036;-50
2022/07/27 04:57:40;;;;;;;3.65;1.30;;;13.10;99.90;;;;;;5036237;28;20467;-54
2022/07/27 05:00:09;;;;;;;2.22;1.20;;;13.10;99.90;;;;;;5039606;28;20100;-52
2022/07/27 05:02:39;;;;;;;3.50;1.27;;;13.10;99.90;;;;;;5034664;28;20041;-55
2022/07/27 05:05:08;;;;;;;2.88;1.05;;;13.10;99.90;;;;;;5038628;28;20064;-54
2022/07/27 05:07:34;;;;;;;3.05;1.35;;;13.10;99.90;;;;;;5031769;28;20026;-54
2022/07/27 05:09:59;;;;;;;3.58;1.90;;;13.20;99.90;;;;;;5037992;28;20021;-57
2022/07/27 05:12:25;;;;;;;3.28;1.00;;;13.20;99.90;;;;;;5038520;28;20401;-57
2022/07/27 05:14:50;;;;;;;4.25;1.02;;;13.20;99.90;;;;;;5036686;28;20024;-55
2022/07/27 05:17:16;;;;;;;5.80;1.63;;;13.30;99.90;;;;;;5037203;28;20391;-53
2022/07/27 05:19:41;;;;;;;2.72;1.35;;;13.30;99.90;;;;;;5032360;28;20099;-56
2022/07/27 05:22:08;;;;;;;2.17;1.13;;;13.30;99.90;;;;;;5040428;28;20032;-53
2022/07/27 05:24:35;;;;;;;2.92;0.95;;;13.30;99.90;;;;;;5010853;28;20033;-55
2022/07/27 05:27:00;;;;;;;5.85;1.27;;;13.40;99.90;;;;;;5038719;28;20151;-53
2022/07/27 05:29:26;;;;;;;6.35;1.60;;;13.40;99.90;;;;;;5034406;28;20480;-51
2022/07/27 05:31:51;;;;;;;6.47;0.80;;;13.40;99.90;;;;;;5036647;28;20107;-52
2022/07/27 05:34:17;;;;;;;6.68;1.50;;;13.50;99.90;;;;;;5033597;28;20071;-51
2022/07/27 05:36:42;;;;;;;5.07;1.45;;;13.50;99.90;;;;;;5034484;28;20104;-55
2022/07/27 05:39:08;;;;;;;3.08;1.52;;;13.60;99.90;;;;;;5040705;28;20029;-50
2022/07/27 05:41:33;;;;;;;4.93;1.20;;;13.60;99.90;;;;;;5034232;28;20464;-55
2022/07/27 05:43:59;;;;;;;5.22;1.45;;;13.60;99.90;;;;;;5038803;28;20395;-51
2022/07/27 05:46:24;;;;;;;3.20;1.05;;;13.60;99.90;;;;;;5033964;28;20033;-50
2022/07/27 05:48:50;;;;;;;4.03;1.17;;;13.60;99.90;;;;;;5036829;28;20048;-57
2022/07/27 05:51:16;;;;;;;5.88;1.13;;;13.70;99.90;;;;;;5032442;28;20025;-53
2022/07/27 05:53:41;;;;;;;4.78;1.23;;;13.70;99.90;;;;;;5034809;28;20108;-56
2022/07/27 05:56:07;;;;;;;5.20;1.45;;;13.80;99.90;;;;;;5031236;28;20025;-53
2022/07/27 05:58:33;;;;;;;3.45;1.05;;;13.80;99.90;;;;;;5034520;28;20498;-52
2022/07/27 06:00:58;;;;;;;7.85;1.33;;;13.90;99.90;;;;;;5033368;28;20040;-52
2022/07/27 06:03:24;;;;;;;4.75;1.75;;;14.00;99.90;;;;;;5033311;28;20412;-52
2022/07/27 06:05:50;;;;;;;6.10;1.67;;;13.90;99.90;;;;;;5036421;28;20472;-54
2022/07/27 06:08:16;;;;;;;0.63;0.60;;;13.90;99.90;;;;;;5032479;28;20419;-54
2022/07/27 06:10:41;;;;;;;4.70;1.60;;;14.00;99.90;;;;;;5035362;28;20065;-52
2022/07/27 06:13:10;;;;;;;2.63;1.73;;;14.00;99.90;;;;;;5039521;28;20047;-57
2022/07/27 06:15:36;;;;;;;6.68;1.27;;;14.00;99.90;;;;;;5034582;28;20017;-54
2022/07/27 06:18:02;;;;;;;6.32;1.42;;;14.00;99.90;;;;;;5036030;28;20026;-54
2022/07/27 06:20:29;;;;;;;6.18;1.63;;;14.10;99.90;;;;;;5039104;28;20502;-55
2022/07/27 06:23:04;;;;;;;3.55;0.98;;;14.10;99.90;;;;;;5033804;28;20064;-55
2022/07/27 06:25:34;;;;;;;5.45;1.40;;;14.10;99.90;;;;;;5038869;28;20092;-55
2022/07/27 06:27:59;;;;;;;2.53;1.10;;;14.20;99.90;;;;;;5032544;28;20021;-55
2022/07/27 06:30:25;;;;;;;4.68;1.05;;;14.30;99.90;;;;;;5018377;28;20455;-57
2022/07/27 06:32:50;;;;;;;6.32;1.50;;;14.30;99.90;;;;;;5032703;28;20020;-54
2022/07/27 06:35:16;;;;;;;6.75;1.30;;;14.40;99.90;;;;;;5015662;28;20072;-55
2022/07/27 06:37:47;;;;;;;4.03;1.10;;;14.50;99.90;;;;;;5022318;28;20033;-56
2022/07/27 06:40:13;;;;;;;2.63;1.30;;;14.60;99.90;;;;;;5030024;28;20388;-55
2022/07/27 06:42:40;;;;;;;4.05;1.60;;;14.70;99.90;;;;;;5017430;28;20049;-54
2022/07/27 06:45:07;;;;;;;4.22;1.23;;;14.80;99.90;;;;;;5031455;28;20044;-56
2022/07/27 06:47:32;;;;;;;2.30;1.20;;;14.90;99.90;;;;;;5032360;28;20372;-57
2022/07/27 06:49:58;;;;;;;4.93;1.30;;;15.00;99.90;;;;;;5028235;28;20036;-53
2022/07/27 06:52:24;;;;;;;6.60;1.83;;;15.10;99.90;;;;;;5029061;28;20021;-55
2022/07/27 06:54:49;;;;;;;4.85;1.63;;;15.20;99.90;;;;;;5011878;28;20024;-58
2022/07/27 06:57:15;;;;;;;5.38;1.17;;;15.40;99.90;;;;;;5028681;28;20013;-55
2022/07/27 06:59:41;;;;;;;4.25;1.48;;;15.40;99.90;;;;;;5028685;28;20014;-56
2022/07/27 07:02:07;;;;;;;3.95;1.20;;;15.50;99.90;;;;;;5028079;28;20029;-53
2022/07/27 07:04:33;;;;;;;5.95;1.27;;;15.50;99.90;;;;;;5028712;28;20447;-53
2022/07/27 07:07:00;;;;;;;4.78;1.60;;;15.60;99.90;;;;;;5028853;28;20029;-55
2022/07/27 07:09:29;;;;;;;3.78;1.02;;;15.70;99.90;;;;;;5028800;28;20022;-53
2022/07/27 07:11:55;;;;;;;2.45;1.17;;;15.80;99.90;;;;;;5028272;28;20033;-54
2022/07/27 07:14:21;;;;;;;3.92;1.33;;;16.10;99.90;;;;;;5028713;28;20013;-58
2022/07/27 07:16:47;;;;;;;7.60;1.48;;;16.30;99.90;;;;;;5013971;28;20510;-57
2022/07/27 07:19:13;;;;;;;8.45;1.45;;;16.50;99.90;;;;;;5034395;28;20036;-56
2022/07/27 07:21:39;;;;;;;5.05;1.10;;;16.70;99.90;;;;;;5037460;28;20018;-56
2022/07/27 07:24:05;;;;;;;6.97;1.50;;;16.80;99.90;;;;;;5034766;28;20067;-56
2022/07/27 07:26:31;;;;;;;3.80;1.20;;;16.70;99.90;;;;;;5036258;28;20137;-53
2022/07/27 07:28:57;;;;;;;4.93;1.33;;;16.70;99.90;;;;;;5034384;28;20021;-50
2022/07/27 07:31:23;;;;;;;3.42;1.23;;;16.60;99.90;;;;;;5032564;28;20060;-54
2022/07/27 07:33:48;;;;;;;4.20;1.00;;;16.40;99.90;;;;;;5036255;28;20017;-51
2022/07/27 07:36:14;;;;;;;4.32;1.10;;;16.40;99.90;;;;;;5033930;28;20450;-51
2022/07/27 07:38:40;;;;;;;3.20;1.30;;;16.40;99.90;;;;;;5077835;22;20059;-57
2022/07/27 07:41:05;;;;;;;6.47;1.55;;;16.40;99.90;;;;;;5037934;28;20028;-60
2022/07/27 07:43:34;;;;;;;2.78;1.20;;;16.40;99.90;;;;;;5038664;28;20033;-60
2022/07/27 07:45:59;;;;;;;5.38;1.00;;;16.40;99.90;;;;;;5037491;28;20013;-58
2022/07/27 07:48:25;;;;;;;3.20;1.40;;;16.40;99.90;;;;;;5037893;28;20021;-56
2022/07/27 07:50:52;;;;;;;4.30;1.13;;;16.30;99.90;;;;;;5035727;28;20028;-57
2022/07/27 07:53:17;;;;;;;4.55;1.10;;;16.40;99.90;;;;;;5037149;28;20025;-56
2022/07/27 07:55:43;;;;;;;2.70;1.35;;;16.40;99.90;;;;;;5036454;28;20540;-58
2022/07/27 07:58:09;;;;;;;2.95;0.95;;;16.40;99.90;;;;;;5037309;28;20030;-57
2022/07/27 08:00:34;;;;;;;4.85;2.03;;;16.40;99.90;;;;;;5035973;28;20480;-60
2022/07/27 08:03:00;;;;;;;5.22;1.00;;;16.40;99.90;;;;;;5036830;28;20021;-56
2022/07/27 08:05:27;;;;;;;6.60;1.23;;;16.60;99.90;;;;;;5038483;28;20451;-58
2022/07/27 08:07:52;;;;;;;3.33;1.27;;;16.80;99.90;;;;;;5035560;28;20495;-58
2022/07/27 08:10:19;;;;;;;3.95;0.98;;;16.90;99.90;;;;;;5037591;28;20140;-59
2022/07/27 08:12:48;;;;;;;6.10;0.70;;;17.00;99.90;;;;;;5023215;28;20029;-53
2022/07/27 08:15:15;;;;;;;5.15;0.90;;;17.00;99.90;;;;;;5036439;28;20036;-58
2022/07/27 08:17:41;;;;;;;9.25;2.22;;;17.00;99.90;;;;;;5038615;28;20021;-60
2022/07/27 08:20:08;;;;;;;5.00;1.58;;;17.10;99.90;;;;;;5018711;28;20551;-54
2022/07/27 08:22:34;;;;;;;2.28;0.75;;;17.10;99.90;;;;;;5039592;28;20028;-55
2022/07/27 08:25:00;;;;;;;6.30;1.13;;;17.10;99.90;;;;;;5036737;28;20021;-58
2022/07/27 08:27:26;;;;;;;3.83;0.98;;;17.10;99.90;;;;;;5039744;28;20024;-58
2022/07/27 08:29:51;;;;;;;6.88;1.38;;;17.10;99.90;;;;;;5034959;28;20084;-59
2022/07/27 08:32:17;;;;;;;4.95;1.00;;;17.10;99.90;;;;;;5038109;28;20104;-57
2022/07/27 08:34:42;;;;;;;5.45;1.20;;;17.10;99.90;;;;;;5033797;28;20017;-55
2022/07/27 08:37:08;;;;;;;3.85;1.58;;;17.10;99.90;;;;;;5039265;28;20033;-53
2022/07/27 08:39:34;;;;;;;3.15;0.88;;;17.20;99.90;;;;;;5039113;28;20021;-57
2022/07/27 08:42:03;;;;;;;5.85;1.85;;;17.40;99.90;;;;;;5018279;28;20048;-59
2022/07/27 08:44:29;;;;;;;5.72;1.25;;;17.50;99.90;;;;;;5038105;28;20032;-56
2022/07/27 08:46:56;;;;;;;4.22;1.13;;;17.50;99.90;;;;;;5017223;28;20523;-49
2022/07/27 08:49:22;;;;;;;2.95;0.93;;;17.50;99.90;;;;;;5037877;28;20139;-55
2022/07/27 08:51:49;;;;;;;2.58;1.35;;;17.60;99.90;;;;;;5033924;28;20017;-54
2022/07/27 08:54:15;;;;;;;5.22;1.55;;;17.70;99.90;;;;;;5019260;28;20441;-56
2022/07/27 08:56:42;;;;;;;4.10;1.10;;;17.90;99.90;;;;;;5033340;28;20140;-54
2022/07/27 08:59:07;;;;;;;4.60;1.35;;;17.90;99.90;;;;;;5036821;28;20519;-59
2022/07/27 09:01:36;;;;;;;6.60;1.42;;;17.90;99.90;;;;;;5037723;28;20026;-58
2022/07/27 09:04:02;;;;;;;2.67;1.30;;;17.90;99.90;;;;;;5016900;28;20499;-54
2022/07/27 09:06:41;;;;;;;5.05;0.85;;;17.80;99.90;;;;;;5037621;28;20032;-55
2022/07/27 09:09:07;;;;;;;4.80;1.10;;;17.80;99.90;;;;;;5015865;28;20029;-54
2022/07/27 09:11:35;;;;;;;5.55;0.88;;;17.70;99.90;;;;;;5041331;28;20044;-59
2022/07/27 09:14:02;;;;;;;5.97;1.00;;;17.70;99.90;;;;;;5034741;28;20014;-57
2022/07/27 09:16:30;;;;;;;1.95;1.13;;;17.70;99.90;;;;;;5039517;28;20384;-58
2022/07/27 09:19:01;;;;;;;3.85;1.05;;;17.70;99.90;;;;;;5034902;28;20018;-58
2022/07/27 09:21:27;;;;;;;4.03;1.38;;;17.70;99.80;;;;;;5030087;28;20049;-57
2022/07/27 09:23:56;;;;;;;4.90;1.13;;;17.80;99.90;;;;;;5029757;28;20361;-61
2022/07/27 09:26:24;;;;;;;4.38;1.00;;;17.90;99.90;;;;;;5029058;28;20103;-59
2022/07/27 09:29:01;;;;;;;4.43;0.85;;;17.80;99.60;;;;;;5011991;28;20025;-55
2022/07/27 09:31:27;;;;;;;3.10;0.90;;;17.80;99.50;;;;;;5011869;28;20108;-61
2022/07/27 09:33:56;;;;;;;3.50;1.13;;;17.70;99.90;;;;;;5029517;28;20018;-58
2022/07/27 09:36:23;;;;;;;2.70;0.80;;;17.80;99.90;;;;;;5029797;28;20377;-59
2022/07/27 09:39:02;;;;;;;4.03;1.20;;;17.80;99.90;;;;;;5029472;28;20030;-55
2022/07/27 09:41:47;;;;;;;1.55;0.45;;;18.00;99.90;;;;;;5030073;28;20061;-58
2022/07/27 09:44:12;;;;;;;4.05;1.30;;;18.20;99.90;;;;;;5029547;28;20025;-54
2022/07/27 09:46:41;;;;;;;4.05;0.88;;;18.20;99.20;;;;;;5030158;28;20113;-58
2022/07/27 09:49:33;;;;;;;4.32;0.93;;;18.10;99.30;;;;;;5029540;28;20076;-53
2022/07/27 09:52:00;;;;;;;2.90;1.45;;;18.10;99.30;;;;;;5029623;28;20229;-59
2022/07/27 09:54:26;;;;;;;1.98;0.70;;;18.00;99.10;;;;;;5029560;28;20025;-59
2022/07/27 09:57:02;;;;;;;1.98;0.88;;;18.00;99.30;;;;;;5011414;28;20099;-54
2022/07/27 09:59:28;;;;;;;;;;;18.00;99.30;;;;;;5029120;28;20384;-57
2022/07/27 10:01:55;;;;;;;2.42;0.88;;;18.10;99.90;;;;;;5029463;28;19908;-58
2022/07/27 10:04:22;;;;;;;2.58;0.98;;;18.10;98.60;;;;;;5011831;28;20030;-55
2022/07/27 10:06:48;;;;;;;7.20;1.63;;;18.20;99.20;;;;;;5029608;28;20395;-59
2022/07/27 10:09:14;;;;;;;2.97;0.70;;;18.30;99.00;;;;;;5025036;28;20036;-58
2022/07/27 10:11:40;;;;;;;5.82;1.80;;;18.40;98.00;;;;;;5028991;28;20025;-53
2022/07/27 10:14:06;;;;;;;12.95;1.80;;;18.60;98.90;;;;;;5029608;28;20034;-57
2022/07/27 10:16:33;;;;;;;4.30;0.93;;;18.70;98.00;;;;;;5029514;28;20030;-53
2022/07/27 10:19:07;;;;;;;4.82;1.17;;;18.70;98.60;;;;;;5036965;28;20025;-58
2022/07/27 10:21:36;;;;;;;6.47;1.13;;;18.80;98.40;;;;;;5037469;28;20032;-55
2022/07/27 10:24:05;;;;;;;4.57;1.15;;;18.70;98.10;;;;;;5035896;28;20021;-60
2022/07/27 10:26:37;;;;;;;4.25;0.90;;;18.70;97.90;;;;;;5036935;28;20384;-58
2022/07/27 10:29:21;;;;;;;2.58;0.90;;;18.70;98.50;;;;;;5033396;28;20029;-57
2022/07/27 10:31:52;;;;;;;3.55;0.73;;;18.80;98.20;;;;;;5035427;28;20483;-59
2022/07/27 10:34:41;;;;;;;2.90;0.70;;;18.90;97.80;;;;;;5023019;28;20025;-57
2022/07/27 10:37:14;;;;;;;2.95;1.08;;;19.00;98.80;;;;;;5036800;28;20030;-60
2022/07/27 10:39:48;;;;;;;3.30;0.90;;;19.00;97.50;;;;;;5015802;28;20555;-59
2022/07/27 10:42:16;;;;;;;3.95;0.80;;;19.00;97.20;;;;;;5032615;28;20021;-58
2022/07/27 10:45:00;;;;;;;3.55;1.35;;;18.90;96.70;;;;;;5032342;28;20029;-58
2022/07/27 10:47:30;;;;;;;5.95;1.17;;;18.90;97.70;;;;;;5033110;28;20017;-57
2022/07/27 10:50:16;;;;;;;1.88;1.13;;;18.90;97.80;;;;;;5029434;28;20021;-58
2022/07/27 10:52:44;;;;;;;1.50;0.88;;;18.70;98.50;;;;;;5020507;28;20431;-59
2022/07/27 10:55:28;;;;;;;2.67;1.00;;;18.50;99.20;;;;;;5037127;28;20532;-56
2022/07/27 10:57:55;;;;;;;4.82;1.10;;;18.30;99.30;;;;;;5033209;28;20021;-56
2022/07/27 11:00:49;;;;;;;5.03;0.93;;;18.20;98.90;;;;;;5036263;28;20021;-57
2022/07/27 11:03:34;;;;;;;6.07;1.52;;;18.00;99.80;;;;;;5022363;28;20026;-59
2022/07/27 11:06:17;;;;;;;2.75;1.10;;;18.00;99.80;;;;;;5017163;28;20033;-57
2022/07/27 11:08:46;;;;;;;2.83;1.02;;;17.90;99.50;;;;;;5030171;28;20028;-58
2022/07/27 11:11:15;;;;;;;4.72;1.08;;;18.00;99.90;;;;;;5036805;28;20028;-63
2022/07/27 11:13:41;;;;;;;5.05;1.20;;;18.20;99.90;;;;;;5033151;28;20100;-60
2022/07/27 11:16:09;;;;;;;4.95;1.13;;;18.20;98.70;;;;;;5034843;28;20164;-59
2022/07/27 11:18:37;;;;;;;3.58;1.02;;;18.20;99.50;;;;;;5037110;28;20102;-62
2022/07/27 11:21:24;;;;;;;6.30;1.17;;;18.30;99.30;;;;;;5020612;28;20033;-57
2022/07/27 11:24:02;;;;;;;4.47;1.23;;;18.40;98.70;;;;;;5030290;28;20033;-55
2022/07/27 11:26:30;;;;;;;6.20;1.27;;;18.40;99.50;;;;;;5036314;28;20543;-60
2022/07/27 11:28:56;;;;;;;2.85;0.90;;;18.40;98.90;;;;;;5033484;28;20025;-59
2022/07/27 11:31:22;;;;;;;4.95;1.00;;;18.40;98.40;;;;;;5034506;28;20095;-58
2022/07/27 11:33:58;;;;;;;3.97;1.45;;;18.50;99.90;;;;;;5031650;28;20487;-61
2022/07/27 11:36:39;;;;;;;5.60;0.98;;;18.70;98.50;;;;;;5027302;28;20361;-58
2022/07/27 11:39:10;;;;;;;5.28;1.10;;;18.80;98.90;;;;;;5034328;28;20119;-53
2022/07/27 11:41:37;;;;;;;3.13;0.95;;;18.90;99.00;;;;;;5033159;28;20087;-57
2022/07/27 11:44:14;;;;;;;3.58;0.98;;;18.90;98.40;;;;;;5032823;28;20025;-60
2022/07/27 11:46:41;;;;;;;5.22;1.00;;;18.90;98.40;;;;;;5031215;28;20030;-60
2022/07/27 11:49:25;;;;;;;4.30;0.95;;;18.90;99.10;;;;;;5035295;28;20029;-61
2022/07/27 11:51:52;;;;;;;4.05;1.30;;;18.90;98.80;;;;;;5031524;28;20160;-61
2022/07/27 11:54:19;;;;;;;3.60;1.33;;;18.70;98.10;;;;;;5017815;28;20036;-57
2022/07/27 11:56:48;;;;;;;6.05;1.23;;;18.60;98.70;;;;;;5034037;28;20036;-59
2022/07/27 11:59:18;;;;;;;5.63;1.42;;;18.60;99.50;;;;;;5033579;28;20427;-59
2022/07/27 12:01:58;;;;;;;2.63;1.33;;;18.70;98.80;;;;;;5033460;28;20441;-59
2022/07/27 12:04:26;;;;;;;3.30;1.40;;;18.70;97.90;;;;;;5016055;28;20033;-61
2022/07/27 12:07:09;;;;;;;4.28;1.48;;;18.80;97.80;;;;;;5031559;28;20030;-60
2022/07/27 12:09:48;;;;;;;4.80;1.17;;;18.80;98.00;;;;;;5034479;28;20021;-59
2022/07/27 12:12:19;;;;;;;5.97;1.15;;;18.80;97.70;;;;;;5027270;28;20022;-61
2022/07/27 12:14:56;;;;;;;4.15;1.17;;;18.70;97.40;;;;;;5000131;28;20045;-58
2022/07/27 12:17:26;;;;;;;2.80;1.10;;;18.80;98.00;;;;;;5028036;28;20499;-59
2022/07/27 12:20:08;;;;;;;2.55;0.82;;;18.80;98.10;;;;;;5019041;28;20026;-59
2022/07/27 12:22:49;;;;;;;2.75;0.70;;;18.80;97.60;;;;;;5039217;28;20047;-60
2022/07/27 12:25:18;;;;;;;6.75;0.95;;;18.90;98.10;;;;;;5035572;28;20022;-57
2022/07/27 12:27:58;;;;;;;3.03;0.80;;;18.90;97.70;;;;;;5037260;28;20033;-57
2022/07/27 12:30:35;;;;;;;3.65;1.02;;;19.00;98.20;;;;;;5034931;28;20041;-59
2022/07/27 12:33:04;;;;;;;1.70;1.00;;;19.10;98.30;;;;;;5033446;28;20022;-59
2022/07/27 12:35:52;;;;;;;1.65;0.98;;;19.10;95.90;;;;;;5036540;28;20392;-57
2022/07/27 12:38:17;;;;;;;3.22;0.60;;;19.10;96.50;;;;;;5013373;28;20033;-56
2022/07/27 12:40:54;;;;;;;1.75;0.75;;;19.10;96.70;;;;;;5037026;28;20024;-59
2022/07/27 12:43:22;;;;;;;1.17;0.57;;;19.00;96.10;;;;;;5030618;28;20022;-57
2022/07/27 12:45:49;;;;;;;4.32;1.15;;;19.00;96.00;;;;;;5035839;28;20067;-59
2022/07/27 12:48:19;;;;;;;6.45;1.05;;;19.00;95.60;;;;;;5039511;28;20063;-59
2022/07/27 12:51:03;;;;;;;3.15;0.93;;;18.90;96.30;;;;;;5033809;28;20026;-59
2022/07/27 12:53:30;;;;;;;2.63;0.85;;;19.00;97.90;;;;;;5030076;28;20361;-59